UAL1534 KDEN-KRIC
Flight info
| Callsign | UAL1534 |
|---|---|
| Flight time | N/A |
| Altitude | 33000 |
| Route | EXTAN7 SHAYK SLN STL FLM J24 MOL SPIDR5 |
| Aircraft | B738/M-SDE2E3FGHIRWXY/LB1 |
Departure
| Time | 2026-05-01 13:58 |
|---|---|
| Airport | Denver International Airport (KDEN) |
Arrival
| Time | N/A |
|---|---|
| Airport | Richmond International Airport (KRIC) |
| Time | Latitude | Longitude | Altitude | Speed | Heading |
|---|---|---|---|---|---|
| 2026-05-01 13:31 | 39.85804 | -104.67085 | 5386 ft | 0 kts | 0° |
| 2026-05-01 13:48 | 39.85793 | -104.67085 | 5383 ft | 4 kts | 359° |
| 2026-05-01 13:48 | 39.85766 | -104.67084 | 5383 ft | 4 kts | 360° |
| 2026-05-01 13:49 | 39.85734 | -104.67090 | 5383 ft | 4 kts | 56° |
| 2026-05-01 13:49 | 39.85731 | -104.67098 | 5385 ft | 1 kts | 91° |
| 2026-05-01 13:51 | 39.85731 | -104.67061 | 5382 ft | 9 kts | 91° |
| 2026-05-01 13:51 | 39.85730 | -104.66968 | 5385 ft | 10 kts | 91° |
| 2026-05-01 13:52 | 39.85727 | -104.66877 | 5385 ft | 10 kts | 98° |
| 2026-05-01 13:52 | 39.85679 | -104.66807 | 5382 ft | 12 kts | 138° |
| 2026-05-01 13:52 | 39.85659 | -104.66695 | 5385 ft | 15 kts | 88° |
| 2026-05-01 13:52 | 39.85664 | -104.66562 | 5386 ft | 14 kts | 76° |
| 2026-05-01 13:53 | 39.85677 | -104.66436 | 5386 ft | 14 kts | 90° |
| 2026-05-01 13:53 | 39.85733 | -104.66238 | 5394 ft | 15 kts | 3° |
| 2026-05-01 13:53 | 39.85859 | -104.66235 | 5393 ft | 20 kts | 1° |
| 2026-05-01 13:54 | 39.85998 | -104.66232 | 5389 ft | 20 kts | 359° |
| 2026-05-01 13:54 | 39.86134 | -104.66232 | 5386 ft | 19 kts | 360° |
| 2026-05-01 13:54 | 39.86267 | -104.66230 | 5382 ft | 20 kts | 1° |
| 2026-05-01 13:54 | 39.86415 | -104.66229 | 5382 ft | 22 kts | 1° |
| 2026-05-01 13:55 | 39.86574 | -104.66226 | 5384 ft | 25 kts | 0° |
| 2026-05-01 13:55 | 39.86758 | -104.66224 | 5376 ft | 28 kts | 0° |
| 2026-05-01 13:55 | 39.86950 | -104.66223 | 5371 ft | 27 kts | 0° |
| 2026-05-01 13:55 | 39.87131 | -104.66220 | 5365 ft | 25 kts | 1° |
| 2026-05-01 13:56 | 39.87300 | -104.66218 | 5363 ft | 24 kts | 360° |
| 2026-05-01 13:56 | 39.87461 | -104.66215 | 5362 ft | 23 kts | 1° |
| 2026-05-01 13:56 | 39.87618 | -104.66214 | 5361 ft | 22 kts | 0° |
| 2026-05-01 13:56 | 39.87747 | -104.66209 | 5359 ft | 10 kts | 31° |
| 2026-05-01 13:57 | 39.87754 | -104.66036 | 5355 ft | 46 kts | 90° |
| 2026-05-01 13:57 | 39.87750 | -104.65318 | 5354 ft | 111 kts | 91° |
| 2026-05-01 13:57 | 39.87741 | -104.64075 | 5328 ft | 166 kts | 90° |
| 2026-05-01 13:57 | 39.87727 | -104.62459 | 5706 ft | 183 kts | 91° |
| 2026-05-01 13:58 | 39.87721 | -104.60753 | 6413 ft | 193 kts | 89° |
| 2026-05-01 13:58 | 39.87560 | -104.58958 | 6818 ft | 213 kts | 110° |
| 2026-05-01 13:58 | 39.86960 | -104.57124 | 7098 ft | 228 kts | 113° |
| 2026-05-01 13:58 | 39.86281 | -104.55153 | 7272 ft | 250 kts | 113° |
| 2026-05-01 13:59 | 39.85554 | -104.52994 | 7461 ft | 272 kts | 113° |
| 2026-05-01 13:59 | 39.84770 | -104.50664 | 7840 ft | 287 kts | 113° |
| 2026-05-01 13:59 | 39.83971 | -104.48279 | 8654 ft | 289 kts | 112° |
| 2026-05-01 13:59 | 39.83169 | -104.45872 | 9512 ft | 290 kts | 112° |
| 2026-05-01 14:00 | 39.82376 | -104.43472 | 10367 ft | 291 kts | 112° |
| 2026-05-01 14:00 | 39.81570 | -104.40958 | 10663 ft | 312 kts | 108° |
| 2026-05-01 14:00 | 39.81017 | -104.38128 | 10849 ft | 334 kts | 98° |
| 2026-05-01 14:00 | 39.80822 | -104.35083 | 11025 ft | 354 kts | 90° |
| 2026-05-01 14:01 | 39.80787 | -104.31780 | 11454 ft | 366 kts | 91° |
| 2026-05-01 14:01 | 39.80518 | -104.28461 | 12092 ft | 372 kts | 97° |
| 2026-05-01 14:01 | 39.80086 | -104.25130 | 12804 ft | 375 kts | 98° |
| 2026-05-01 14:01 | 39.79649 | -104.21767 | 13499 ft | 379 kts | 98° |
| 2026-05-01 14:02 | 39.79237 | -104.18354 | 14107 ft | 385 kts | 97° |
| 2026-05-01 14:02 | 39.78838 | -104.14894 | 14707 ft | 388 kts | 97° |
| 2026-05-01 14:02 | 39.78456 | -104.11412 | 15358 ft | 390 kts | 96° |
| 2026-05-01 14:02 | 39.78084 | -104.07900 | 15981 ft | 393 kts | 96° |
| 2026-05-01 14:03 | 39.77712 | -104.04359 | 16591 ft | 397 kts | 96° |
| 2026-05-01 14:03 | 39.77333 | -104.00788 | 17191 ft | 401 kts | 96° |
| 2026-05-01 14:03 | 39.76946 | -103.97182 | 17792 ft | 404 kts | 96° |
| 2026-05-01 14:03 | 39.76559 | -103.93593 | 18384 ft | 407 kts | 96° |
| 2026-05-01 14:04 | 39.76138 | -103.89939 | 18903 ft | 410 kts | 97° |
| 2026-05-01 14:04 | 39.75674 | -103.86268 | 19436 ft | 413 kts | 98° |
| 2026-05-01 14:04 | 39.75197 | -103.82571 | 19918 ft | 417 kts | 97° |
| 2026-05-01 14:04 | 39.74723 | -103.78843 | 20413 ft | 420 kts | 97° |
| 2026-05-01 14:05 | 39.74256 | -103.75091 | 20946 ft | 421 kts | 96° |
| 2026-05-01 14:05 | 39.73885 | -103.71311 | 21481 ft | 423 kts | 94° |
| 2026-05-01 14:05 | 39.73585 | -103.67494 | 21978 ft | 425 kts | 94° |
| 2026-05-01 14:05 | 39.73310 | -103.63665 | 22457 ft | 427 kts | 93° |
| 2026-05-01 14:06 | 39.73035 | -103.59808 | 22929 ft | 430 kts | 94° |
| 2026-05-01 14:06 | 39.72750 | -103.55931 | 23392 ft | 432 kts | 94° |
| 2026-05-01 14:06 | 39.72454 | -103.52026 | 23833 ft | 435 kts | 94° |
| 2026-05-01 14:06 | 39.72148 | -103.48110 | 24167 ft | 439 kts | 94° |
| 2026-05-01 14:07 | 39.71833 | -103.44143 | 24433 ft | 444 kts | 94° |
| 2026-05-01 14:07 | 39.71511 | -103.40140 | 24728 ft | 448 kts | 94° |
| 2026-05-01 14:07 | 39.71184 | -103.36100 | 25046 ft | 451 kts | 94° |
| 2026-05-01 14:08 | 39.70515 | -103.27924 | 25571 ft | 460 kts | 95° |
| 2026-05-01 14:08 | 39.70175 | -103.23775 | 25781 ft | 465 kts | 95° |
| 2026-05-01 14:08 | 39.69828 | -103.19581 | 26103 ft | 468 kts | 95° |
| 2026-05-01 14:08 | 39.69479 | -103.15371 | 26420 ft | 470 kts | 95° |
| 2026-05-01 14:09 | 39.69127 | -103.11139 | 26681 ft | 474 kts | 95° |
| 2026-05-01 14:09 | 39.68773 | -103.06910 | 26896 ft | 478 kts | 95° |
| 2026-05-01 14:09 | 39.68412 | -103.02604 | 27163 ft | 481 kts | 95° |
| 2026-05-01 14:09 | 39.68046 | -102.98266 | 27441 ft | 484 kts | 95° |
| 2026-05-01 14:10 | 39.67676 | -102.93907 | 27700 ft | 487 kts | 95° |
| 2026-05-01 14:10 | 39.67303 | -102.89526 | 27988 ft | 489 kts | 95° |
| 2026-05-01 14:10 | 39.66927 | -102.85129 | 28329 ft | 490 kts | 95° |
| 2026-05-01 14:10 | 39.66549 | -102.80726 | 28687 ft | 491 kts | 95° |
| 2026-05-01 14:11 | 39.66168 | -102.76321 | 29052 ft | 492 kts | 96° |
| 2026-05-01 14:11 | 39.65398 | -102.67448 | 29607 ft | 497 kts | 96° |
| 2026-05-01 14:11 | 39.65008 | -102.62986 | 29925 ft | 498 kts | 96° |
| 2026-05-01 14:12 | 39.64615 | -102.58515 | 30234 ft | 499 kts | 96° |
| 2026-05-01 14:12 | 39.64220 | -102.54041 | 30496 ft | 500 kts | 96° |
| 2026-05-01 14:12 | 39.63823 | -102.49553 | 30778 ft | 501 kts | 96° |
| 2026-05-01 14:12 | 39.63422 | -102.45054 | 31044 ft | 502 kts | 96° |
| 2026-05-01 14:13 | 39.63020 | -102.40552 | 31325 ft | 503 kts | 96° |
| 2026-05-01 14:13 | 39.62751 | -102.37557 | 31451 ft | 505 kts | 97° |
| 2026-05-01 14:13 | 39.62203 | -102.31483 | 31765 ft | 507 kts | 97° |
| 2026-05-01 14:13 | 39.61791 | -102.26930 | 32003 ft | 509 kts | 97° |
| 2026-05-01 14:14 | 39.61376 | -102.22367 | 32226 ft | 511 kts | 97° |
| 2026-05-01 14:14 | 39.60957 | -102.17779 | 32351 ft | 514 kts | 97° |
| 2026-05-01 14:14 | 39.60101 | -102.08473 | 32527 ft | 524 kts | 97° |
| 2026-05-01 14:15 | 39.59666 | -102.03770 | 32757 ft | 525 kts | 98° |
| 2026-05-01 14:15 | 39.59238 | -101.99107 | 32882 ft | 529 kts | 97° |
| 2026-05-01 14:15 | 39.58845 | -101.94357 | 33080 ft | 531 kts | 97° |
| 2026-05-01 14:15 | 39.58477 | -101.89590 | 33175 ft | 533 kts | 96° |
| 2026-05-01 14:16 | 39.57752 | -101.80022 | 33173 ft | 532 kts | 97° |
| 2026-05-01 14:16 | 39.57009 | -101.70541 | 33166 ft | 527 kts | 97° |
| 2026-05-01 14:17 | 39.56246 | -101.61099 | 33166 ft | 527 kts | 97° |
| 2026-05-01 14:17 | 39.55476 | -101.51651 | 33156 ft | 527 kts | 97° |
| 2026-05-01 14:18 | 39.54699 | -101.42192 | 33153 ft | 528 kts | 97° |
| 2026-05-01 14:18 | 39.53820 | -101.34377 | 33146 ft | 528 kts | 102° |
| 2026-05-01 14:19 | 39.52129 | -101.23463 | 33182 ft | 529 kts | 103° |
| 2026-05-01 14:19 | 39.50647 | -101.14115 | 33195 ft | 531 kts | 103° |
| 2026-05-01 14:20 | 39.48508 | -101.00010 | 33195 ft | 533 kts | 103° |
| 2026-05-01 14:21 | 39.47101 | -100.90619 | 33191 ft | 535 kts | 103° |
| 2026-05-01 14:21 | 39.45672 | -100.81149 | 33182 ft | 537 kts | 103° |
| 2026-05-01 14:22 | 39.43503 | -100.66913 | 33161 ft | 538 kts | 103° |
| 2026-05-01 14:22 | 39.42044 | -100.57419 | 33146 ft | 538 kts | 103° |
| 2026-05-01 14:23 | 39.40577 | -100.47921 | 33151 ft | 539 kts | 103° |
| 2026-05-01 14:23 | 39.39101 | -100.38414 | 33153 ft | 538 kts | 103° |
| 2026-05-01 14:24 | 39.37619 | -100.28932 | 33160 ft | 538 kts | 103° |
| 2026-05-01 14:24 | 39.36131 | -100.19459 | 33184 ft | 538 kts | 103° |
| 2026-05-01 14:25 | 39.34642 | -100.10034 | 33158 ft | 538 kts | 104° |
| 2026-05-01 14:25 | 39.33137 | -100.00562 | 33167 ft | 538 kts | 104° |
| 2026-05-01 14:26 | 39.30865 | -99.86354 | 33165 ft | 539 kts | 104° |
| 2026-05-01 14:27 | 39.29337 | -99.76868 | 33165 ft | 540 kts | 104° |
| 2026-05-01 14:27 | 39.27797 | -99.67360 | 33168 ft | 541 kts | 104° |
| 2026-05-01 14:28 | 39.25471 | -99.53097 | 33164 ft | 542 kts | 104° |
| 2026-05-01 14:28 | 39.23907 | -99.43566 | 33171 ft | 543 kts | 104° |
| 2026-05-01 14:29 | 39.22332 | -99.34024 | 33160 ft | 544 kts | 104° |
| 2026-05-01 14:30 | 39.19160 | -99.14955 | 33155 ft | 544 kts | 104° |
| 2026-05-01 14:31 | 39.16759 | -99.00656 | 33167 ft | 545 kts | 105° |
| 2026-05-01 14:31 | 39.15145 | -98.91109 | 33164 ft | 545 kts | 105° |
| 2026-05-01 14:32 | 39.13533 | -98.81625 | 33163 ft | 545 kts | 105° |
| 2026-05-01 14:32 | 39.11903 | -98.72082 | 33165 ft | 545 kts | 105° |
| 2026-05-01 14:33 | 39.10267 | -98.62554 | 33165 ft | 545 kts | 105° |
| 2026-05-01 14:33 | 39.08618 | -98.53004 | 33164 ft | 546 kts | 105° |
| 2026-05-01 14:34 | 39.07244 | -98.45080 | 33168 ft | 546 kts | 105° |
| 2026-05-01 14:34 | 39.05581 | -98.35537 | 33162 ft | 546 kts | 105° |
| 2026-05-01 14:35 | 39.03914 | -98.26016 | 33159 ft | 545 kts | 106° |
| 2026-05-01 14:35 | 39.02240 | -98.16511 | 33159 ft | 545 kts | 106° |
| 2026-05-01 14:36 | 39.00560 | -98.07013 | 33169 ft | 545 kts | 106° |
| 2026-05-01 14:36 | 38.98872 | -97.97521 | 33167 ft | 545 kts | 106° |
| 2026-05-01 14:37 | 38.97174 | -97.88021 | 33174 ft | 545 kts | 107° |
| 2026-05-01 14:37 | 38.95469 | -97.78528 | 33180 ft | 545 kts | 107° |
| 2026-05-01 14:38 | 38.93769 | -97.69102 | 33183 ft | 545 kts | 107° |
| 2026-05-01 14:38 | 38.92445 | -97.59487 | 33174 ft | 550 kts | 94° |
| 2026-05-01 14:39 | 38.92592 | -97.49660 | 33182 ft | 551 kts | 88° |
| 2026-05-01 14:39 | 38.92901 | -97.39817 | 33182 ft | 551 kts | 89° |
| 2026-05-01 14:40 | 38.93149 | -97.29978 | 33181 ft | 551 kts | 89° |
| 2026-05-01 14:40 | 38.93336 | -97.20204 | 33175 ft | 552 kts | 90° |
| 2026-05-01 14:41 | 38.93501 | -97.10356 | 33174 ft | 551 kts | 90° |
| 2026-05-01 14:41 | 38.93659 | -97.00512 | 33179 ft | 551 kts | 90° |
| 2026-05-01 14:42 | 38.93814 | -96.90660 | 33172 ft | 552 kts | 90° |
| 2026-05-01 14:42 | 38.93962 | -96.80814 | 33173 ft | 552 kts | 90° |
| 2026-05-01 14:43 | 38.94102 | -96.70951 | 33173 ft | 552 kts | 90° |
| 2026-05-01 14:43 | 38.94233 | -96.61079 | 33173 ft | 552 kts | 90° |
| 2026-05-01 14:44 | 38.94356 | -96.51217 | 33172 ft | 553 kts | 90° |
| 2026-05-01 14:44 | 38.94525 | -96.36403 | 33172 ft | 553 kts | 91° |
| 2026-05-01 14:45 | 38.94675 | -96.21645 | 33170 ft | 554 kts | 91° |
| 2026-05-01 14:46 | 38.94765 | -96.11733 | 33165 ft | 555 kts | 92° |
| 2026-05-01 14:46 | 38.94885 | -95.96850 | 33160 ft | 555 kts | 92° |
| 2026-05-01 14:47 | 38.94954 | -95.86924 | 33162 ft | 556 kts | 92° |
| 2026-05-01 14:48 | 38.95042 | -95.72003 | 33158 ft | 557 kts | 92° |
| 2026-05-01 14:48 | 38.95112 | -95.57141 | 33168 ft | 557 kts | 92° |
| 2026-05-01 14:49 | 38.95175 | -95.37192 | 33170 ft | 557 kts | 92° |
| 2026-05-01 14:50 | 38.95204 | -95.17266 | 33163 ft | 557 kts | 93° |
| 2026-05-01 14:51 | 38.95204 | -95.02392 | 33166 ft | 557 kts | 93° |
| 2026-05-01 14:52 | 38.95184 | -94.87438 | 33167 ft | 557 kts | 93° |
| 2026-05-01 14:53 | 38.95146 | -94.72501 | 33165 ft | 558 kts | 93° |
| 2026-05-01 14:53 | 38.95129 | -94.67516 | 32952 ft | 558 kts | 93° |
| 2026-05-01 14:53 | 38.95110 | -94.62525 | 32936 ft | 558 kts | 93° |
| 2026-05-01 14:54 | 38.95065 | -94.52562 | 32922 ft | 558 kts | 93° |
| 2026-05-01 14:54 | 38.95040 | -94.47580 | 33167 ft | 558 kts | 93° |
| 2026-05-01 14:54 | 38.95012 | -94.42591 | 33166 ft | 558 kts | 94° |
| 2026-05-01 14:55 | 38.94950 | -94.32619 | 33163 ft | 558 kts | 94° |
| 2026-05-01 14:55 | 38.94881 | -94.22718 | 33163 ft | 558 kts | 94° |
| 2026-05-01 14:56 | 38.94802 | -94.12742 | 33172 ft | 559 kts | 94° |
| 2026-05-01 14:56 | 38.94715 | -94.02752 | 33169 ft | 559 kts | 94° |
| 2026-05-01 14:57 | 38.94619 | -93.92752 | 33174 ft | 559 kts | 94° |
| 2026-05-01 14:57 | 38.94459 | -93.77758 | 33181 ft | 560 kts | 94° |
| 2026-05-01 14:58 | 38.94342 | -93.67742 | 33180 ft | 561 kts | 94° |
| 2026-05-01 14:58 | 38.94216 | -93.57721 | 33173 ft | 561 kts | 94° |
| 2026-05-01 14:59 | 38.94081 | -93.47698 | 33172 ft | 562 kts | 94° |
| 2026-05-01 14:59 | 38.93938 | -93.37658 | 33174 ft | 562 kts | 94° |
| 2026-05-01 15:00 | 38.93708 | -93.22618 | 33180 ft | 561 kts | 94° |
| 2026-05-01 15:01 | 38.93542 | -93.12586 | 33173 ft | 562 kts | 94° |
| 2026-05-01 15:01 | 38.93369 | -93.02558 | 33161 ft | 561 kts | 94° |
| 2026-05-01 15:02 | 38.93189 | -92.92603 | 33173 ft | 561 kts | 95° |
| 2026-05-01 15:02 | 38.92998 | -92.82597 | 33168 ft | 560 kts | 95° |
| 2026-05-01 15:03 | 38.92800 | -92.72586 | 33173 ft | 560 kts | 95° |
| 2026-05-01 15:03 | 38.92593 | -92.62586 | 33182 ft | 560 kts | 95° |
| 2026-05-01 15:04 | 38.92377 | -92.52580 | 33170 ft | 560 kts | 95° |
| 2026-05-01 15:04 | 38.92153 | -92.42581 | 33160 ft | 560 kts | 95° |
| 2026-05-01 15:05 | 38.91920 | -92.32558 | 33159 ft | 560 kts | 95° |
| 2026-05-01 15:05 | 38.91680 | -92.22622 | 33156 ft | 560 kts | 95° |
| 2026-05-01 15:06 | 38.91431 | -92.12626 | 33159 ft | 560 kts | 95° |
| 2026-05-01 15:06 | 38.91172 | -92.02617 | 33155 ft | 561 kts | 95° |
| 2026-05-01 15:07 | 38.90905 | -91.92610 | 33162 ft | 561 kts | 95° |
| 2026-05-01 15:07 | 38.90629 | -91.82594 | 33155 ft | 562 kts | 95° |
| 2026-05-01 15:08 | 38.90345 | -91.72567 | 33161 ft | 562 kts | 95° |
| 2026-05-01 15:08 | 38.90051 | -91.62523 | 33156 ft | 562 kts | 95° |
| 2026-05-01 15:09 | 38.89749 | -91.52492 | 33157 ft | 563 kts | 95° |
| 2026-05-01 15:09 | 38.89438 | -91.42444 | 33150 ft | 563 kts | 96° |
| 2026-05-01 15:10 | 38.89118 | -91.32393 | 33154 ft | 564 kts | 96° |
| 2026-05-01 15:10 | 38.88623 | -91.17365 | 33154 ft | 564 kts | 96° |
| 2026-05-01 15:11 | 38.88106 | -91.02245 | 33154 ft | 566 kts | 96° |
| 2026-05-01 15:12 | 38.87749 | -90.92134 | 33159 ft | 568 kts | 96° |
| 2026-05-01 15:12 | 38.87195 | -90.76887 | 33157 ft | 571 kts | 96° |
| 2026-05-01 15:14 | 38.86222 | -90.51295 | 33150 ft | 576 kts | 97° |
| 2026-05-01 15:14 | 38.85865 | -90.35826 | 33151 ft | 580 kts | 93° |
| 2026-05-01 15:15 | 38.85790 | -90.15176 | 33156 ft | 580 kts | 94° |
| 2026-05-01 15:16 | 38.85553 | -89.94509 | 33119 ft | 579 kts | 94° |
| 2026-05-01 15:18 | 38.85193 | -89.68704 | 33128 ft | 578 kts | 94° |
| 2026-05-01 15:19 | 38.84869 | -89.48014 | 33143 ft | 587 kts | 94° |
| 2026-05-01 15:19 | 38.84592 | -89.32111 | 33132 ft | 601 kts | 94° |
| 2026-05-01 15:20 | 38.84298 | -89.16093 | 33112 ft | 602 kts | 94° |
| 2026-05-01 15:21 | 38.84088 | -89.05349 | 33125 ft | 602 kts | 94° |
| 2026-05-01 15:21 | 38.83866 | -88.94604 | 33119 ft | 602 kts | 94° |
| 2026-05-01 15:22 | 38.83515 | -88.78479 | 33119 ft | 603 kts | 94° |
| 2026-05-01 15:22 | 38.83270 | -88.67795 | 33108 ft | 603 kts | 94° |
| 2026-05-01 15:23 | 38.83014 | -88.57052 | 33107 ft | 603 kts | 94° |
| 2026-05-01 15:23 | 38.82747 | -88.46299 | 33106 ft | 603 kts | 94° |
| 2026-05-01 15:24 | 38.82517 | -88.37292 | 33107 ft | 604 kts | 94° |
| 2026-05-01 15:24 | 38.82232 | -88.26530 | 33123 ft | 605 kts | 94° |
| 2026-05-01 15:25 | 38.81937 | -88.15743 | 33122 ft | 606 kts | 95° |
| 2026-05-01 15:25 | 38.81634 | -88.05020 | 33093 ft | 607 kts | 94° |
| 2026-05-01 15:26 | 38.81317 | -87.94186 | 33089 ft | 608 kts | 95° |
| 2026-05-01 15:26 | 38.80991 | -87.83352 | 33088 ft | 608 kts | 95° |
| 2026-05-01 15:27 | 38.80654 | -87.72515 | 33093 ft | 609 kts | 95° |
| 2026-05-01 15:28 | 38.80130 | -87.56226 | 33093 ft | 609 kts | 95° |
| 2026-05-01 15:28 | 38.79768 | -87.45378 | 33088 ft | 609 kts | 95° |
| 2026-05-01 15:29 | 38.79206 | -87.29113 | 33062 ft | 609 kts | 95° |
| 2026-05-01 15:30 | 38.78422 | -87.07430 | 33086 ft | 610 kts | 95° |
| 2026-05-01 15:31 | 38.77168 | -86.74863 | 33056 ft | 612 kts | 95° |
| 2026-05-01 15:32 | 38.76279 | -86.53055 | 33073 ft | 613 kts | 95° |
| 2026-05-01 15:34 | 38.74869 | -86.20380 | 33017 ft | 612 kts | 95° |